sensor_id;sensor_type;location;lat;lon;timestamp;P1;durP1;ratioP1;P2;durP2;ratioP2
10410;SDS011;5251;52.112;8.606;2022-10-16T00:01:23;4.57;;;3.83;;
10410;SDS011;5251;52.112;8.606;2022-10-16T00:03:50;7.07;;;3.25;;
10410;SDS011;5251;52.112;8.606;2022-10-16T00:06:17;3.92;;;3.42;;
10410;SDS011;5251;52.112;8.606;2022-10-16T00:08:44;5.53;;;3.88;;
10410;SDS011;5251;52.112;8.606;2022-10-16T00:11:11;5.13;;;3.80;;
10410;SDS011;5251;52.112;8.606;2022-10-16T00:13:39;3.97;;;3.58;;
10410;SDS011;5251;52.112;8.606;2022-10-16T00:16:07;3.42;;;3.13;;
10410;SDS011;5251;52.112;8.606;2022-10-16T00:18:33;4.53;;;3.53;;
10410;SDS011;5251;52.112;8.606;2022-10-16T00:21:09;4.53;;;3.30;;
10410;SDS011;5251;52.112;8.606;2022-10-16T00:23:58;3.53;;;3.22;;
10410;SDS011;5251;52.112;8.606;2022-10-16T00:26:26;4.10;;;3.30;;
10410;SDS011;5251;52.112;8.606;2022-10-16T00:28:53;4.00;;;3.47;;
10410;SDS011;5251;52.112;8.606;2022-10-16T00:31:20;4.63;;;3.35;;
10410;SDS011;5251;52.112;8.606;2022-10-16T00:33:47;6.03;;;3.75;;
10410;SDS011;5251;52.112;8.606;2022-10-16T00:36:14;4.32;;;3.40;;
10410;SDS011;5251;52.112;8.606;2022-10-16T00:38:41;5.88;;;3.58;;
10410;SDS011;5251;52.112;8.606;2022-10-16T00:41:07;4.80;;;3.60;;
10410;SDS011;5251;52.112;8.606;2022-10-16T00:51:26;4.45;;;3.20;;
10410;SDS011;5251;52.112;8.606;2022-10-16T00:54:05;4.38;;;3.83;;
10410;SDS011;5251;52.112;8.606;2022-10-16T00:56:33;4.70;;;3.70;;
10410;SDS011;5251;52.112;8.606;2022-10-16T00:58:59;4.18;;;3.40;;
10410;SDS011;5251;52.112;8.606;2022-10-16T01:01:28;4.90;;;3.50;;
10410;SDS011;5251;52.112;8.606;2022-10-16T01:03:54;4.93;;;3.83;;
10410;SDS011;5251;52.112;8.606;2022-10-16T01:06:24;4.65;;;3.35;;
10410;SDS011;5251;52.112;8.606;2022-10-16T01:14:39;4.38;;;3.78;;
10410;SDS011;5251;52.112;8.606;2022-10-16T01:20:19;4.90;;;3.88;;
10410;SDS011;5251;52.112;8.606;2022-10-16T01:25:37;5.13;;;4.03;;
10410;SDS011;5251;52.112;8.606;2022-10-16T01:28:14;4.45;;;3.85;;
10410;SDS011;5251;52.112;8.606;2022-10-16T01:30:43;4.40;;;4.00;;
10410;SDS011;5251;52.112;8.606;2022-10-16T01:33:30;4.88;;;3.60;;
10410;SDS011;5251;52.112;8.606;2022-10-16T01:36:12;6.13;;;4.47;;
10410;SDS011;5251;52.112;8.606;2022-10-16T01:38:41;4.70;;;4.13;;
10410;SDS011;5251;52.112;8.606;2022-10-16T01:41:15;6.60;;;4.32;;
10410;SDS011;5251;52.112;8.606;2022-10-16T01:43:50;6.25;;;4.40;;
10410;SDS011;5251;52.112;8.606;2022-10-16T01:46:22;4.38;;;3.97;;
10410;SDS011;5251;52.112;8.606;2022-10-16T01:48:49;5.88;;;3.95;;
10410;SDS011;5251;52.112;8.606;2022-10-16T01:51:17;4.53;;;4.13;;
10410;SDS011;5251;52.112;8.606;2022-10-16T01:53:46;5.93;;;4.13;;
10410;SDS011;5251;52.112;8.606;2022-10-16T01:56:15;5.28;;;4.20;;
10410;SDS011;5251;52.112;8.606;2022-10-16T01:58:51;6.22;;;4.25;;
10410;SDS011;5251;52.112;8.606;2022-10-16T02:01:21;4.85;;;4.18;;
10410;SDS011;5251;52.112;8.606;2022-10-16T02:03:50;5.03;;;4.00;;
10410;SDS011;5251;52.112;8.606;2022-10-16T02:06:18;4.82;;;3.90;;
10410;SDS011;5251;52.112;8.606;2022-10-16T02:08:44;5.18;;;4.30;;
10410;SDS011;5251;52.112;8.606;2022-10-16T02:11:10;4.97;;;4.47;;
10410;SDS011;5251;52.112;8.606;2022-10-16T02:13:53;4.47;;;4.07;;
10410;SDS011;5251;52.112;8.606;2022-10-16T02:16:35;5.22;;;4.25;;
10410;SDS011;5251;52.112;8.606;2022-10-16T02:19:05;5.20;;;4.43;;
10410;SDS011;5251;52.112;8.606;2022-10-16T02:29:38;5.28;;;4.70;;
10410;SDS011;5251;52.112;8.606;2022-10-16T02:32:06;4.40;;;4.00;;
10410;SDS011;5251;52.112;8.606;2022-10-16T02:34:33;5.53;;;4.47;;
10410;SDS011;5251;52.112;8.606;2022-10-16T02:37:02;4.60;;;3.90;;
10410;SDS011;5251;52.112;8.606;2022-10-16T02:39:33;4.85;;;3.88;;
10410;SDS011;5251;52.112;8.606;2022-10-16T02:41:59;7.55;;;3.85;;
10410;SDS011;5251;52.112;8.606;2022-10-16T02:44:24;4.45;;;3.50;;
10410;SDS011;5251;52.112;8.606;2022-10-16T02:46:50;4.82;;;4.32;;
10410;SDS011;5251;52.112;8.606;2022-10-16T02:49:16;6.22;;;4.20;;
10410;SDS011;5251;52.112;8.606;2022-10-16T02:51:42;4.03;;;3.63;;
10410;SDS011;5251;52.112;8.606;2022-10-16T02:54:08;6.35;;;3.72;;
10410;SDS011;5251;52.112;8.606;2022-10-16T02:56:34;4.13;;;3.70;;
10410;SDS011;5251;52.112;8.606;2022-10-16T02:58:59;4.10;;;3.70;;
10410;SDS011;5251;52.112;8.606;2022-10-16T03:01:25;5.18;;;3.40;;
10410;SDS011;5251;52.112;8.606;2022-10-16T03:03:50;6.68;;;3.97;;
10410;SDS011;5251;52.112;8.606;2022-10-16T03:06:16;5.75;;;3.80;;
10410;SDS011;5251;52.112;8.606;2022-10-16T03:08:42;4.53;;;3.80;;
10410;SDS011;5251;52.112;8.606;2022-10-16T03:11:07;3.60;;;3.30;;
10410;SDS011;5251;52.112;8.606;2022-10-16T03:13:33;5.25;;;3.45;;
10410;SDS011;5251;52.112;8.606;2022-10-16T03:15:58;4.03;;;3.63;;
10410;SDS011;5251;52.112;8.606;2022-10-16T03:18:24;5.05;;;3.10;;
10410;SDS011;5251;52.112;8.606;2022-10-16T03:20:50;3.72;;;3.10;;
10410;SDS011;5251;52.112;8.606;2022-10-16T03:23:15;3.75;;;3.35;;
10410;SDS011;5251;52.112;8.606;2022-10-16T03:25:41;4.93;;;3.67;;
10410;SDS011;5251;52.112;8.606;2022-10-16T03:28:06;4.80;;;3.10;;
10410;SDS011;5251;52.112;8.606;2022-10-16T03:30:32;4.15;;;3.13;;
10410;SDS011;5251;52.112;8.606;2022-10-16T03:32:57;3.88;;;2.97;;
10410;SDS011;5251;52.112;8.606;2022-10-16T03:35:23;3.63;;;2.88;;
10410;SDS011;5251;52.112;8.606;2022-10-16T03:37:49;4.05;;;2.97;;
10410;SDS011;5251;52.112;8.606;2022-10-16T03:40:16;4.85;;;3.03;;
10410;SDS011;5251;52.112;8.606;2022-10-16T03:42:42;4.10;;;2.75;;
10410;SDS011;5251;52.112;8.606;2022-10-16T03:45:08;3.90;;;2.85;;
10410;SDS011;5251;52.112;8.606;2022-10-16T03:47:35;3.25;;;2.33;;
10410;SDS011;5251;52.112;8.606;2022-10-16T03:50:00;3.92;;;2.75;;
10410;SDS011;5251;52.112;8.606;2022-10-16T03:52:27;3.78;;;2.70;;
10410;SDS011;5251;52.112;8.606;2022-10-16T03:54:52;4.25;;;2.78;;
10410;SDS011;5251;52.112;8.606;2022-10-16T03:57:18;4.40;;;2.78;;
10410;SDS011;5251;52.112;8.606;2022-10-16T03:59:44;3.58;;;2.80;;
10410;SDS011;5251;52.112;8.606;2022-10-16T04:02:09;3.80;;;2.58;;
10410;SDS011;5251;52.112;8.606;2022-10-16T04:04:35;3.60;;;2.58;;
10410;SDS011;5251;52.112;8.606;2022-10-16T04:07:01;2.67;;;2.40;;
10410;SDS011;5251;52.112;8.606;2022-10-16T04:09:26;3.92;;;2.50;;
10410;SDS011;5251;52.112;8.606;2022-10-16T04:11:52;2.83;;;2.40;;
10410;SDS011;5251;52.112;8.606;2022-10-16T04:14:17;4.85;;;2.65;;
10410;SDS011;5251;52.112;8.606;2022-10-16T04:16:43;3.67;;;2.50;;
10410;SDS011;5251;52.112;8.606;2022-10-16T04:19:10;4.00;;;2.63;;
10410;SDS011;5251;52.112;8.606;2022-10-16T04:21:36;3.90;;;2.53;;
10410;SDS011;5251;52.112;8.606;2022-10-16T04:24:01;3.33;;;2.30;;
10410;SDS011;5251;52.112;8.606;2022-10-16T04:26:27;3.53;;;2.70;;
10410;SDS011;5251;52.112;8.606;2022-10-16T04:28:53;3.78;;;2.67;;
10410;SDS011;5251;52.112;8.606;2022-10-16T04:31:19;4.30;;;2.63;;
10410;SDS011;5251;52.112;8.606;2022-10-16T04:33:44;2.60;;;2.40;;
10410;SDS011;5251;52.112;8.606;2022-10-16T04:36:10;3.60;;;2.33;;
10410;SDS011;5251;52.112;8.606;2022-10-16T04:38:36;2.22;;;2.00;;
10410;SDS011;5251;52.112;8.606;2022-10-16T04:41:02;3.13;;;2.15;;
10410;SDS011;5251;52.112;8.606;2022-10-16T04:43:28;2.40;;;2.20;;
10410;SDS011;5251;52.112;8.606;2022-10-16T04:45:54;3.72;;;1.98;;
10410;SDS011;5251;52.112;8.606;2022-10-16T04:48:21;4.60;;;2.42;;
10410;SDS011;5251;52.112;8.606;2022-10-16T04:50:46;2.28;;;2.03;;
10410;SDS011;5251;52.112;8.606;2022-10-16T04:53:12;2.30;;;1.90;;
10410;SDS011;5251;52.112;8.606;2022-10-16T04:55:38;2.17;;;1.88;;
10410;SDS011;5251;52.112;8.606;2022-10-16T04:58:04;3.13;;;2.03;;
10410;SDS011;5251;52.112;8.606;2022-10-16T05:00:29;2.30;;;2.10;;
10410;SDS011;5251;52.112;8.606;2022-10-16T05:02:55;2.10;;;1.90;;
10410;SDS011;5251;52.112;8.606;2022-10-16T05:05:22;2.85;;;1.83;;
10410;SDS011;5251;52.112;8.606;2022-10-16T05:07:48;2.65;;;2.00;;
10410;SDS011;5251;52.112;8.606;2022-10-16T05:10:14;2.50;;;1.83;;
10410;SDS011;5251;52.112;8.606;2022-10-16T05:12:40;2.63;;;1.80;;
10410;SDS011;5251;52.112;8.606;2022-10-16T05:15:06;3.15;;;1.90;;
10410;SDS011;5251;52.112;8.606;2022-10-16T05:17:32;2.90;;;1.63;;
10410;SDS011;5251;52.112;8.606;2022-10-16T05:19:57;2.47;;;1.63;;
10410;SDS011;5251;52.112;8.606;2022-10-16T05:22:23;1.65;;;1.55;;
10410;SDS011;5251;52.112;8.606;2022-10-16T05:24:48;1.70;;;1.60;;
10410;SDS011;5251;52.112;8.606;2022-10-16T05:27:14;2.17;;;1.52;;
10410;SDS011;5251;52.112;8.606;2022-10-16T05:29:47;2.25;;;1.60;;
10410;SDS011;5251;52.112;8.606;2022-10-16T05:32:13;1.50;;;1.40;;
10410;SDS011;5251;52.112;8.606;2022-10-16T05:34:40;2.67;;;1.60;;
10410;SDS011;5251;52.112;8.606;2022-10-16T05:37:05;1.92;;;1.50;;
10410;SDS011;5251;52.112;8.606;2022-10-16T05:39:31;1.58;;;1.48;;
10410;SDS011;5251;52.112;8.606;2022-10-16T05:41:57;1.77;;;1.42;;
10410;SDS011;5251;52.112;8.606;2022-10-16T05:44:22;1.67;;;1.42;;
10410;SDS011;5251;52.112;8.606;2022-10-16T05:46:48;2.10;;;1.75;;
10410;SDS011;5251;52.112;8.606;2022-10-16T05:49:14;1.80;;;1.50;;
10410;SDS011;5251;52.112;8.606;2022-10-16T05:51:39;2.03;;;1.45;;
10410;SDS011;5251;52.112;8.606;2022-10-16T05:54:06;1.67;;;1.40;;
10410;SDS011;5251;52.112;8.606;2022-10-16T05:56:31;1.60;;;1.48;;
10410;SDS011;5251;52.112;8.606;2022-10-16T05:58:57;2.70;;;1.60;;
10410;SDS011;5251;52.112;8.606;2022-10-16T06:01:22;2.97;;;1.75;;
10410;SDS011;5251;52.112;8.606;2022-10-16T06:03:49;3.08;;;1.83;;
10410;SDS011;5251;52.112;8.606;2022-10-16T06:06:17;1.55;;;1.45;;
10410;SDS011;5251;52.112;8.606;2022-10-16T06:08:45;2.53;;;1.40;;
10410;SDS011;5251;52.112;8.606;2022-10-16T06:11:13;2.53;;;1.70;;
10410;SDS011;5251;52.112;8.606;2022-10-16T06:13:42;1.38;;;1.27;;
10410;SDS011;5251;52.112;8.606;2022-10-16T06:16:10;1.40;;;1.30;;
10410;SDS011;5251;52.112;8.606;2022-10-16T06:18:36;1.60;;;1.40;;
10410;SDS011;5251;52.112;8.606;2022-10-16T06:21:09;2.08;;;1.40;;
10410;SDS011;5251;52.112;8.606;2022-10-16T06:23:36;1.73;;;1.58;;
10410;SDS011;5251;52.112;8.606;2022-10-16T06:26:06;1.95;;;1.50;;
10410;SDS011;5251;52.112;8.606;2022-10-16T06:28:33;1.42;;;1.33;;
10410;SDS011;5251;52.112;8.606;2022-10-16T06:30:59;2.63;;;1.40;;
10410;SDS011;5251;52.112;8.606;2022-10-16T06:33:25;2.65;;;1.63;;
10410;SDS011;5251;52.112;8.606;2022-10-16T06:35:51;1.48;;;1.38;;
10410;SDS011;5251;52.112;8.606;2022-10-16T06:38:17;2.10;;;1.42;;
10410;SDS011;5251;52.112;8.606;2022-10-16T06:40:42;1.42;;;1.33;;
10410;SDS011;5251;52.112;8.606;2022-10-16T06:43:08;1.58;;;1.38;;
10410;SDS011;5251;52.112;8.606;2022-10-16T06:45:34;1.58;;;1.48;;
10410;SDS011;5251;52.112;8.606;2022-10-16T06:47:59;1.50;;;1.40;;
10410;SDS011;5251;52.112;8.606;2022-10-16T06:50:25;3.38;;;1.55;;
10410;SDS011;5251;52.112;8.606;2022-10-16T06:52:51;1.30;;;1.20;;
10410;SDS011;5251;52.112;8.606;2022-10-16T06:55:17;2.70;;;1.20;;
10410;SDS011;5251;52.112;8.606;2022-10-16T06:57:43;2.22;;;1.42;;
10410;SDS011;5251;52.112;8.606;2022-10-16T07:00:11;1.33;;;1.23;;
10410;SDS011;5251;52.112;8.606;2022-10-16T07:02:37;1.30;;;1.20;;
10410;SDS011;5251;52.112;8.606;2022-10-16T07:05:02;1.88;;;1.35;;
10410;SDS011;5251;52.112;8.606;2022-10-16T07:07:29;3.10;;;1.40;;
10410;SDS011;5251;52.112;8.606;2022-10-16T07:09:54;1.40;;;1.30;;
10410;SDS011;5251;52.112;8.606;2022-10-16T07:12:20;1.73;;;1.13;;
10410;SDS011;5251;52.112;8.606;2022-10-16T07:14:45;2.03;;;1.20;;
10410;SDS011;5251;52.112;8.606;2022-10-16T07:17:11;1.30;;;1.20;;
10410;SDS011;5251;52.112;8.606;2022-10-16T07:19:36;2.03;;;1.33;;
10410;SDS011;5251;52.112;8.606;2022-10-16T07:22:02;2.47;;;1.40;;
10410;SDS011;5251;52.112;8.606;2022-10-16T07:24:28;1.63;;;1.20;;
10410;SDS011;5251;52.112;8.606;2022-10-16T07:26:54;1.30;;;1.20;;
10410;SDS011;5251;52.112;8.606;2022-10-16T07:29:20;1.45;;;1.35;;
10410;SDS011;5251;52.112;8.606;2022-10-16T07:31:47;1.95;;;1.40;;
10410;SDS011;5251;52.112;8.606;2022-10-16T07:34:13;1.40;;;1.30;;
10410;SDS011;5251;52.112;8.606;2022-10-16T07:36:40;1.73;;;1.30;;
10410;SDS011;5251;52.112;8.606;2022-10-16T07:39:05;3.13;;;1.17;;
10410;SDS011;5251;52.112;8.606;2022-10-16T07:41:31;2.33;;;1.42;;
10410;SDS011;5251;52.112;8.606;2022-10-16T07:43:58;2.58;;;1.67;;
10410;SDS011;5251;52.112;8.606;2022-10-16T07:46:25;1.70;;;1.20;;
10410;SDS011;5251;52.112;8.606;2022-10-16T07:48:51;8.30;;;1.20;;
10410;SDS011;5251;52.112;8.606;2022-10-16T07:51:18;1.60;;;1.23;;
10410;SDS011;5251;52.112;8.606;2022-10-16T07:53:46;1.30;;;1.20;;
10410;SDS011;5251;52.112;8.606;2022-10-16T07:56:11;2.92;;;1.35;;
10410;SDS011;5251;52.112;8.606;2022-10-16T07:58:37;1.33;;;1.20;;
10410;SDS011;5251;52.112;8.606;2022-10-16T08:01:05;1.58;;;1.48;;
10410;SDS011;5251;52.112;8.606;2022-10-16T08:03:32;2.00;;;1.27;;
10410;SDS011;5251;52.112;8.606;2022-10-16T08:05:58;1.75;;;1.20;;
10410;SDS011;5251;52.112;8.606;2022-10-16T08:08:25;1.30;;;1.20;;
10410;SDS011;5251;52.112;8.606;2022-10-16T08:10:51;1.83;;;1.20;;
10410;SDS011;5251;52.112;8.606;2022-10-16T08:13:17;4.40;;;1.50;;
10410;SDS011;5251;52.112;8.606;2022-10-16T08:15:43;1.58;;;1.30;;
10410;SDS011;5251;52.112;8.606;2022-10-16T08:18:09;1.38;;;1.27;;
10410;SDS011;5251;52.112;8.606;2022-10-16T08:20:37;1.83;;;1.42;;
10410;SDS011;5251;52.112;8.606;2022-10-16T08:23:04;1.92;;;1.33;;
10410;SDS011;5251;52.112;8.606;2022-10-16T08:25:30;1.63;;;1.20;;
10410;SDS011;5251;52.112;8.606;2022-10-16T08:27:56;1.30;;;1.17;;
10410;SDS011;5251;52.112;8.606;2022-10-16T08:30:21;1.40;;;1.30;;
10410;SDS011;5251;52.112;8.606;2022-10-16T08:32:48;2.15;;;1.20;;
10410;SDS011;5251;52.112;8.606;2022-10-16T08:35:14;3.25;;;1.20;;
10410;SDS011;5251;52.112;8.606;2022-10-16T08:37:40;3.30;;;1.30;;
10410;SDS011;5251;52.112;8.606;2022-10-16T08:40:07;1.98;;;1.13;;
10410;SDS011;5251;52.112;8.606;2022-10-16T08:48:24;1.10;;;1.00;;
10410;SDS011;5251;52.112;8.606;2022-10-16T08:51:05;1.98;;;1.27;;
10410;SDS011;5251;52.112;8.606;2022-10-16T08:53:43;1.73;;;1.38;;
10410;SDS011;5251;52.112;8.606;2022-10-16T08:56:13;1.58;;;1.27;;
10410;SDS011;5251;52.112;8.606;2022-10-16T08:58:39;1.60;;;1.00;;
10410;SDS011;5251;52.112;8.606;2022-10-16T09:01:10;1.80;;;0.93;;
10410;SDS011;5251;52.112;8.606;2022-10-16T09:09:49;1.20;;;1.00;;
10410;SDS011;5251;52.112;8.606;2022-10-16T09:12:37;3.05;;;1.05;;
10410;SDS011;5251;52.112;8.606;2022-10-16T09:17:56;1.55;;;1.00;;
10410;SDS011;5251;52.112;8.606;2022-10-16T09:23:30;3.95;;;1.00;;
10410;SDS011;5251;52.112;8.606;2022-10-16T09:25:59;1.13;;;1.02;;
10410;SDS011;5251;52.112;8.606;2022-10-16T09:28:25;2.15;;;1.23;;
10410;SDS011;5251;52.112;8.606;2022-10-16T09:30:51;2.55;;;1.20;;
10410;SDS011;5251;52.112;8.606;2022-10-16T09:33:18;3.63;;;1.20;;
10410;SDS011;5251;52.112;8.606;2022-10-16T09:35:51;1.45;;;1.20;;
10410;SDS011;5251;52.112;8.606;2022-10-16T09:40:47;2.55;;;1.20;;
10410;SDS011;5251;52.112;8.606;2022-10-16T09:48:25;2.88;;;1.23;;
10410;SDS011;5251;52.112;8.606;2022-10-16T09:51:02;1.17;;;0.90;;
10410;SDS011;5251;52.112;8.606;2022-10-16T09:53:45;2.05;;;1.17;;
10410;SDS011;5251;52.112;8.606;2022-10-16T09:56:20;3.13;;;1.10;;
10410;SDS011;5251;52.112;8.606;2022-10-16T09:58:50;4.18;;;0.98;;
10410;SDS011;5251;52.112;8.606;2022-10-16T10:01:17;1.17;;;0.85;;
10410;SDS011;5251;52.112;8.606;2022-10-16T10:03:44;1.60;;;1.15;;
10410;SDS011;5251;52.112;8.606;2022-10-16T10:06:16;1.38;;;1.10;;
10410;SDS011;5251;52.112;8.606;2022-10-16T10:14:16;3.13;;;1.20;;
10410;SDS011;5251;52.112;8.606;2022-10-16T10:16:45;2.40;;;1.20;;
10410;SDS011;5251;52.112;8.606;2022-10-16T10:19:18;2.67;;;1.10;;
10410;SDS011;5251;52.112;8.606;2022-10-16T10:21:48;1.73;;;1.00;;
10410;SDS011;5251;52.112;8.606;2022-10-16T10:24:17;1.35;;;0.90;;
10410;SDS011;5251;52.112;8.606;2022-10-16T10:27:26;1.33;;;1.00;;
10410;SDS011;5251;52.112;8.606;2022-10-16T10:29:56;2.78;;;0.90;;
10410;SDS011;5251;52.112;8.606;2022-10-16T10:32:44;3.78;;;1.15;;
10410;SDS011;5251;52.112;8.606;2022-10-16T10:44:16;1.88;;;0.90;;
10410;SDS011;5251;52.112;8.606;2022-10-16T11:03:41;1.52;;;0.80;;
10410;SDS011;5251;52.112;8.606;2022-10-16T11:06:17;1.42;;;0.95;;
10410;SDS011;5251;52.112;8.606;2022-10-16T11:14:25;2.33;;;1.00;;
10410;SDS011;5251;52.112;8.606;2022-10-16T11:17:13;0.70;;;0.70;;
10410;SDS011;5251;52.112;8.606;2022-10-16T11:23:51;2.33;;;0.98;;
10410;SDS011;5251;52.112;8.606;2022-10-16T11:26:00;1.52;;;0.85;;
10410;SDS011;5251;52.112;8.606;2022-10-16T11:28:39;2.53;;;1.17;;
10410;SDS011;5251;52.112;8.606;2022-10-16T11:31:23;2.40;;;1.00;;
10410;SDS011;5251;52.112;8.606;2022-10-16T11:36:47;1.55;;;0.90;;
10410;SDS011;5251;52.112;8.606;2022-10-16T11:39:50;1.83;;;0.88;;
10410;SDS011;5251;52.112;8.606;2022-10-16T11:42:21;1.88;;;0.85;;
10410;SDS011;5251;52.112;8.606;2022-10-16T11:55:53;1.63;;;1.25;;
10410;SDS011;5251;52.112;8.606;2022-10-16T11:58:29;1.83;;;1.20;;
10410;SDS011;5251;52.112;8.606;2022-10-16T12:09:21;2.92;;;1.13;;
10410;SDS011;5251;52.112;8.606;2022-10-16T12:11:52;3.00;;;1.10;;
10410;SDS011;5251;52.112;8.606;2022-10-16T12:14:22;1.40;;;1.00;;
10410;SDS011;5251;52.112;8.606;2022-10-16T12:17:00;1.25;;;0.90;;
10410;SDS011;5251;52.112;8.606;2022-10-16T12:22:40;1.17;;;0.73;;
10410;SDS011;5251;52.112;8.606;2022-10-16T12:25:25;0.82;;;0.80;;
10410;SDS011;5251;52.112;8.606;2022-10-16T12:28:20;2.03;;;0.80;;
10410;SDS011;5251;52.112;8.606;2022-10-16T12:30:54;1.20;;;0.85;;
10410;SDS011;5251;52.112;8.606;2022-10-16T12:33:23;0.88;;;0.65;;
10410;SDS011;5251;52.112;8.606;2022-10-16T12:36:00;1.02;;;0.75;;
10410;SDS011;5251;52.112;8.606;2022-10-16T12:41:04;0.68;;;0.68;;
10410;SDS011;5251;52.112;8.606;2022-10-16T12:48:34;3.83;;;1.00;;
10410;SDS011;5251;52.112;8.606;2022-10-16T12:51:11;1.70;;;1.02;;
10410;SDS011;5251;52.112;8.606;2022-10-16T13:04:50;1.08;;;0.95;;
10410;SDS011;5251;52.112;8.606;2022-10-16T13:10:27;1.85;;;0.90;;
10410;SDS011;5251;52.112;8.606;2022-10-16T13:21:33;1.67;;;1.00;;
10410;SDS011;5251;52.112;8.606;2022-10-16T13:30:23;2.03;;;1.20;;
10410;SDS011;5251;52.112;8.606;2022-10-16T13:33:13;1.90;;;1.15;;
10410;SDS011;5251;52.112;8.606;2022-10-16T13:35:37;1.75;;;0.95;;
10410;SDS011;5251;52.112;8.606;2022-10-16T13:40:57;2.65;;;0.88;;
10410;SDS011;5251;52.112;8.606;2022-10-16T13:43:28;1.50;;;0.90;;
10410;SDS011;5251;52.112;8.606;2022-10-16T13:46:02;2.17;;;1.00;;
10410;SDS011;5251;52.112;8.606;2022-10-16T13:48:31;1.30;;;0.90;;
10410;SDS011;5251;52.112;8.606;2022-10-16T13:50:59;1.10;;;1.00;;
10410;SDS011;5251;52.112;8.606;2022-10-16T13:53:26;1.45;;;1.02;;
10410;SDS011;5251;52.112;8.606;2022-10-16T13:55:52;1.33;;;1.17;;
10410;SDS011;5251;52.112;8.606;2022-10-16T13:58:17;3.25;;;1.20;;
10410;SDS011;5251;52.112;8.606;2022-10-16T14:00:59;1.75;;;1.40;;
10410;SDS011;5251;52.112;8.606;2022-10-16T14:03:28;1.33;;;1.15;;
10410;SDS011;5251;52.112;8.606;2022-10-16T14:05:56;1.30;;;1.20;;
10410;SDS011;5251;52.112;8.606;2022-10-16T14:08:25;1.10;;;1.00;;
10410;SDS011;5251;52.112;8.606;2022-10-16T14:10:56;2.45;;;1.45;;
10410;SDS011;5251;52.112;8.606;2022-10-16T14:13:34;1.75;;;1.20;;
10410;SDS011;5251;52.112;8.606;2022-10-16T14:16:15;1.95;;;1.23;;
10410;SDS011;5251;52.112;8.606;2022-10-16T14:18:45;1.40;;;1.23;;
10410;SDS011;5251;52.112;8.606;2022-10-16T14:21:21;1.58;;;1.20;;
10410;SDS011;5251;52.112;8.606;2022-10-16T14:23:47;1.30;;;1.20;;
10410;SDS011;5251;52.112;8.606;2022-10-16T14:26:13;1.35;;;1.15;;
10410;SDS011;5251;52.112;8.606;2022-10-16T14:28:41;2.10;;;1.20;;
10410;SDS011;5251;52.112;8.606;2022-10-16T14:33:48;1.38;;;1.27;;
10410;SDS011;5251;52.112;8.606;2022-10-16T14:36:14;1.23;;;1.02;;
10410;SDS011;5251;52.112;8.606;2022-10-16T14:38:48;2.03;;;1.10;;
10410;SDS011;5251;52.112;8.606;2022-10-16T14:41:27;1.85;;;1.58;;
10410;SDS011;5251;52.112;8.606;2022-10-16T14:43:55;2.88;;;1.50;;
10410;SDS011;5251;52.112;8.606;2022-10-16T14:46:56;1.73;;;1.20;;
10410;SDS011;5251;52.112;8.606;2022-10-16T14:49:15;1.92;;;1.45;;
10410;SDS011;5251;52.112;8.606;2022-10-16T14:51:44;1.75;;;1.33;;
10410;SDS011;5251;52.112;8.606;2022-10-16T14:54:14;1.20;;;1.10;;
10410;SDS011;5251;52.112;8.606;2022-10-16T14:59:17;1.27;;;1.10;;
10410;SDS011;5251;52.112;8.606;2022-10-16T15:01:49;1.27;;;1.02;;
10410;SDS011;5251;52.112;8.606;2022-10-16T15:04:15;1.40;;;1.17;;
10410;SDS011;5251;52.112;8.606;2022-10-16T15:06:41;3.78;;;1.02;;
10410;SDS011;5251;52.112;8.606;2022-10-16T15:09:07;1.20;;;1.10;;
10410;SDS011;5251;52.112;8.606;2022-10-16T15:11:33;1.13;;;1.02;;
10410;SDS011;5251;52.112;8.606;2022-10-16T15:13:59;1.17;;;1.08;;
10410;SDS011;5251;52.112;8.606;2022-10-16T15:16:24;2.30;;;0.98;;
10410;SDS011;5251;52.112;8.606;2022-10-16T15:18:50;1.38;;;1.02;;
10410;SDS011;5251;52.112;8.606;2022-10-16T15:21:33;1.25;;;1.08;;
10410;SDS011;5251;52.112;8.606;2022-10-16T15:23:59;1.92;;;1.20;;
10410;SDS011;5251;52.112;8.606;2022-10-16T15:26:26;1.60;;;1.20;;
10410;SDS011;5251;52.112;8.606;2022-10-16T15:28:53;1.98;;;1.27;;
10410;SDS011;5251;52.112;8.606;2022-10-16T15:31:19;1.70;;;1.00;;
10410;SDS011;5251;52.112;8.606;2022-10-16T15:33:46;1.20;;;1.10;;
10410;SDS011;5251;52.112;8.606;2022-10-16T15:36:24;1.70;;;1.10;;
10410;SDS011;5251;52.112;8.606;2022-10-16T15:38:51;1.35;;;1.10;;
10410;SDS011;5251;52.112;8.606;2022-10-16T15:41:16;1.60;;;1.05;;
10410;SDS011;5251;52.112;8.606;2022-10-16T15:43:42;2.15;;;1.10;;
10410;SDS011;5251;52.112;8.606;2022-10-16T15:46:09;1.27;;;1.10;;
10410;SDS011;5251;52.112;8.606;2022-10-16T15:48:39;1.55;;;1.20;;
10410;SDS011;5251;52.112;8.606;2022-10-16T15:51:05;1.92;;;1.00;;
10410;SDS011;5251;52.112;8.606;2022-10-16T15:53:31;2.00;;;1.00;;
10410;SDS011;5251;52.112;8.606;2022-10-16T15:55:58;1.50;;;1.15;;
10410;SDS011;5251;52.112;8.606;2022-10-16T15:58:27;1.25;;;1.10;;
10410;SDS011;5251;52.112;8.606;2022-10-16T16:00:56;1.23;;;1.00;;
10410;SDS011;5251;52.112;8.606;2022-10-16T16:03:23;3.30;;;1.25;;
10410;SDS011;5251;52.112;8.606;2022-10-16T16:05:48;1.27;;;1.15;;
10410;SDS011;5251;52.112;8.606;2022-10-16T16:08:14;1.92;;;1.30;;
10410;SDS011;5251;52.112;8.606;2022-10-16T16:10:40;1.00;;;0.90;;
10410;SDS011;5251;52.112;8.606;2022-10-16T16:13:05;1.30;;;1.20;;
10410;SDS011;5251;52.112;8.606;2022-10-16T16:15:31;1.20;;;1.10;;
10410;SDS011;5251;52.112;8.606;2022-10-16T16:17:57;3.08;;;1.35;;
10410;SDS011;5251;52.112;8.606;2022-10-16T16:20:22;1.13;;;1.02;;
10410;SDS011;5251;52.112;8.606;2022-10-16T16:22:48;1.52;;;1.42;;
10410;SDS011;5251;52.112;8.606;2022-10-16T16:25:13;1.63;;;1.20;;
10410;SDS011;5251;52.112;8.606;2022-10-16T16:27:39;3.33;;;1.33;;
10410;SDS011;5251;52.112;8.606;2022-10-16T16:30:06;1.88;;;1.38;;
10410;SDS011;5251;52.112;8.606;2022-10-16T16:32:32;2.17;;;1.50;;
10410;SDS011;5251;52.112;8.606;2022-10-16T16:34:59;1.58;;;1.30;;
10410;SDS011;5251;52.112;8.606;2022-10-16T16:37:25;1.80;;;1.40;;
10410;SDS011;5251;52.112;8.606;2022-10-16T16:39:51;1.65;;;1.55;;
10410;SDS011;5251;52.112;8.606;2022-10-16T16:42:16;1.60;;;1.17;;
10410;SDS011;5251;52.112;8.606;2022-10-16T16:44:42;1.40;;;1.30;;
10410;SDS011;5251;52.112;8.606;2022-10-16T16:47:08;1.20;;;1.10;;
10410;SDS011;5251;52.112;8.606;2022-10-16T16:49:34;2.17;;;1.27;;
10410;SDS011;5251;52.112;8.606;2022-10-16T16:52:00;1.40;;;1.30;;
10410;SDS011;5251;52.112;8.606;2022-10-16T16:54:26;2.13;;;1.27;;
10410;SDS011;5251;52.112;8.606;2022-10-16T16:56:51;1.77;;;1.23;;
10410;SDS011;5251;52.112;8.606;2022-10-16T16:59:18;1.63;;;1.30;;
10410;SDS011;5251;52.112;8.606;2022-10-16T17:01:44;1.70;;;1.30;;
10410;SDS011;5251;52.112;8.606;2022-10-16T17:04:11;1.63;;;1.17;;
10410;SDS011;5251;52.112;8.606;2022-10-16T17:06:39;1.40;;;1.27;;
10410;SDS011;5251;52.112;8.606;2022-10-16T17:09:05;3.60;;;1.52;;
10410;SDS011;5251;52.112;8.606;2022-10-16T17:11:31;2.15;;;1.30;;
10410;SDS011;5251;52.112;8.606;2022-10-16T17:13:58;1.98;;;1.20;;
10410;SDS011;5251;52.112;8.606;2022-10-16T17:16:26;1.75;;;1.50;;
10410;SDS011;5251;52.112;8.606;2022-10-16T17:18:59;2.20;;;1.60;;
10410;SDS011;5251;52.112;8.606;2022-10-16T17:21:25;1.90;;;1.70;;
10410;SDS011;5251;52.112;8.606;2022-10-16T17:23:54;2.47;;;1.38;;
10410;SDS011;5251;52.112;8.606;2022-10-16T17:26:20;1.92;;;1.40;;
10410;SDS011;5251;52.112;8.606;2022-10-16T17:28:45;1.77;;;1.23;;
10410;SDS011;5251;52.112;8.606;2022-10-16T17:31:16;1.50;;;1.40;;
10410;SDS011;5251;52.112;8.606;2022-10-16T17:33:44;1.98;;;1.30;;
10410;SDS011;5251;52.112;8.606;2022-10-16T17:36:11;1.40;;;1.30;;
10410;SDS011;5251;52.112;8.606;2022-10-16T17:38:39;1.40;;;1.30;;
10410;SDS011;5251;52.112;8.606;2022-10-16T17:41:16;1.30;;;1.17;;
10410;SDS011;5251;52.112;8.606;2022-10-16T17:43:47;2.22;;;1.50;;
10410;SDS011;5251;52.112;8.606;2022-10-16T17:46:14;2.55;;;1.45;;
10410;SDS011;5251;52.112;8.606;2022-10-16T17:48:42;1.90;;;1.50;;
10410;SDS011;5251;52.112;8.606;2022-10-16T17:51:12;1.60;;;1.50;;
10410;SDS011;5251;52.112;8.606;2022-10-16T17:53:40;1.50;;;1.40;;